sensor_id;sensor_type;location;lat;lon;timestamp;temperature;humidity
21282;DHT22;10800;53.096;18.328;2023-12-22T00:03:18;5.60;99.90
21282;DHT22;10800;53.096;18.328;2023-12-22T00:08:54;5.60;99.90
21282;DHT22;10800;53.096;18.328;2023-12-22T00:14:07;5.70;99.90
21282;DHT22;10800;53.096;18.328;2023-12-22T00:19:13;5.60;99.90
21282;DHT22;10800;53.096;18.328;2023-12-22T00:24:42;5.60;99.90
21282;DHT22;10800;53.096;18.328;2023-12-22T00:29:56;5.60;99.90
21282;DHT22;10800;53.096;18.328;2023-12-22T00:35:03;5.60;99.90
21282;DHT22;10800;53.096;18.328;2023-12-22T00:40:09;5.50;99.90
21282;DHT22;10800;53.096;18.328;2023-12-22T00:45:15;5.50;99.90
21282;DHT22;10800;53.096;18.328;2023-12-22T00:50:21;5.60;99.90
21282;DHT22;10800;53.096;18.328;2023-12-22T00:55:27;5.60;99.90
21282;DHT22;10800;53.096;18.328;2023-12-22T01:00:34;5.50;99.90
21282;DHT22;10800;53.096;18.328;2023-12-22T01:05:44;5.40;99.90
21282;DHT22;10800;53.096;18.328;2023-12-22T01:11:21;5.20;99.90
21282;DHT22;10800;53.096;18.328;2023-12-22T01:16:50;5.00;99.90
21282;DHT22;10800;53.096;18.328;2023-12-22T01:22:26;4.80;99.90
21282;DHT22;10800;53.096;18.328;2023-12-22T01:27:42;4.70;99.90
21282;DHT22;10800;53.096;18.328;2023-12-22T01:33:17;4.60;99.90
21282;DHT22;10800;53.096;18.328;2023-12-22T01:39:09;4.50;99.90
21282;DHT22;10800;53.096;18.328;2023-12-22T01:44:17;4.50;99.90
21282;DHT22;10800;53.096;18.328;2023-12-22T01:49:28;4.60;99.90
21282;DHT22;10800;53.096;18.328;2023-12-22T01:54:37;4.60;99.90
21282;DHT22;10800;53.096;18.328;2023-12-22T01:59:52;4.70;99.90
21282;DHT22;10800;53.096;18.328;2023-12-22T02:05:03;4.70;99.90
21282;DHT22;10800;53.096;18.328;2023-12-22T02:10:28;4.60;99.90
21282;DHT22;10800;53.096;18.328;2023-12-22T02:16:01;4.60;99.90
21282;DHT22;10800;53.096;18.328;2023-12-22T02:21:09;4.50;99.90
21282;DHT22;10800;53.096;18.328;2023-12-22T02:27:10;4.40;99.90
21282;DHT22;10800;53.096;18.328;2023-12-22T02:32:46;4.40;99.90
21282;DHT22;10800;53.096;18.328;2023-12-22T02:38:19;4.30;99.90
21282;DHT22;10800;53.096;18.328;2023-12-22T02:43:46;4.30;99.90
21282;DHT22;10800;53.096;18.328;2023-12-22T02:49:14;4.30;99.90
21282;DHT22;10800;53.096;18.328;2023-12-22T02:54:26;4.30;99.90
21282;DHT22;10800;53.096;18.328;2023-12-22T03:00:05;4.40;99.90
21282;DHT22;10800;53.096;18.328;2023-12-22T03:05:46;4.30;99.90
21282;DHT22;10800;53.096;18.328;2023-12-22T03:11:32;4.20;99.90
21282;DHT22;10800;53.096;18.328;2023-12-22T03:16:40;4.30;99.90
21282;DHT22;10800;53.096;18.328;2023-12-22T03:21:51;4.30;99.90
21282;DHT22;10800;53.096;18.328;2023-12-22T03:26:58;4.30;99.90
21282;DHT22;10800;53.096;18.328;2023-12-22T03:32:09;4.30;99.90
21282;DHT22;10800;53.096;18.328;2023-12-22T03:37:18;4.40;99.90
21282;DHT22;10800;53.096;18.328;2023-12-22T03:42:25;4.30;99.90
21282;DHT22;10800;53.096;18.328;2023-12-22T03:47:31;4.30;99.90
21282;DHT22;10800;53.096;18.328;2023-12-22T03:52:40;4.40;99.90
21282;DHT22;10800;53.096;18.328;2023-12-22T03:57:47;4.50;99.90
21282;DHT22;10800;53.096;18.328;2023-12-22T04:02:59;4.70;99.90
21282;DHT22;10800;53.096;18.328;2023-12-22T04:08:18;4.70;99.90
21282;DHT22;10800;53.096;18.328;2023-12-22T04:13:34;4.70;99.90
21282;DHT22;10800;53.096;18.328;2023-12-22T04:18:43;4.70;99.90
21282;DHT22;10800;53.096;18.328;2023-12-22T04:24:11;4.70;99.90
21282;DHT22;10800;53.096;18.328;2023-12-22T04:29:28;4.80;99.90
21282;DHT22;10800;53.096;18.328;2023-12-22T04:34:42;4.70;99.90
21282;DHT22;10800;53.096;18.328;2023-12-22T04:39:53;4.70;99.90
21282;DHT22;10800;53.096;18.328;2023-12-22T04:45:18;4.80;99.50
21282;DHT22;10800;53.096;18.328;2023-12-22T04:50:34;4.80;98.60
21282;DHT22;10800;53.096;18.328;2023-12-22T04:55:46;4.70;98.00
21282;DHT22;10800;53.096;18.328;2023-12-22T05:00:55;4.70;97.60
21282;DHT22;10800;53.096;18.328;2023-12-22T05:06:05;4.70;98.00
21282;DHT22;10800;53.096;18.328;2023-12-22T05:11:15;4.70;99.00
21282;DHT22;10800;53.096;18.328;2023-12-22T05:16:21;4.60;99.30
21282;DHT22;10800;53.096;18.328;2023-12-22T05:21:30;4.60;98.60
21282;DHT22;10800;53.096;18.328;2023-12-22T05:26:36;4.50;98.60
21282;DHT22;10800;53.096;18.328;2023-12-22T05:31:42;4.50;98.30
21282;DHT22;10800;53.096;18.328;2023-12-22T05:36:49;4.40;97.40
21282;DHT22;10800;53.096;18.328;2023-12-22T05:41:57;4.40;96.30
21282;DHT22;10800;53.096;18.328;2023-12-22T05:47:22;4.30;95.60
21282;DHT22;10800;53.096;18.328;2023-12-22T05:52:32;4.30;95.00
21282;DHT22;10800;53.096;18.328;2023-12-22T05:58:04;4.10;94.80
21282;DHT22;10800;53.096;18.328;2023-12-22T06:03:25;4.00;94.50
21282;DHT22;10800;53.096;18.328;2023-12-22T06:08:54;3.90;94.50
21282;DHT22;10800;53.096;18.328;2023-12-22T06:14:30;3.80;94.80
21282;DHT22;10800;53.096;18.328;2023-12-22T06:20:13;3.70;95.40
21282;DHT22;10800;53.096;18.328;2023-12-22T06:25:38;3.70;95.40
21282;DHT22;10800;53.096;18.328;2023-12-22T06:30:48;3.80;95.80
21282;DHT22;10800;53.096;18.328;2023-12-22T06:35:56;3.70;97.10
21282;DHT22;10800;53.096;18.328;2023-12-22T06:41:03;3.60;97.70
21282;DHT22;10800;53.096;18.328;2023-12-22T06:46:21;3.50;98.40
21282;DHT22;10800;53.096;18.328;2023-12-22T06:51:33;3.50;97.70
21282;DHT22;10800;53.096;18.328;2023-12-22T06:56:52;3.50;98.10
21282;DHT22;10800;53.096;18.328;2023-12-22T07:01:58;3.50;98.70
21282;DHT22;10800;53.096;18.328;2023-12-22T07:07:09;3.50;99.90
21282;DHT22;10800;53.096;18.328;2023-12-22T07:12:20;3.30;99.90
21282;DHT22;10800;53.096;18.328;2023-12-22T07:17:26;3.10;99.90
21282;DHT22;10800;53.096;18.328;2023-12-22T07:22:39;3.10;99.90
21282;DHT22;10800;53.096;18.328;2023-12-22T07:27:45;3.10;99.90
21282;DHT22;10800;53.096;18.328;2023-12-22T07:32:51;3.20;99.90
21282;DHT22;10800;53.096;18.328;2023-12-22T07:37:58;3.40;99.80
21282;DHT22;10800;53.096;18.328;2023-12-22T07:43:05;3.60;98.70
21282;DHT22;10800;53.096;18.328;2023-12-22T07:48:10;3.60;97.70
21282;DHT22;10800;53.096;18.328;2023-12-22T07:53:18;3.80;97.30
21282;DHT22;10800;53.096;18.328;2023-12-22T07:58:26;3.90;96.50
21282;DHT22;10800;53.096;18.328;2023-12-22T08:03:34;4.00;97.20
21282;DHT22;10800;53.096;18.328;2023-12-22T08:08:41;4.00;96.80
21282;DHT22;10800;53.096;18.328;2023-12-22T08:13:48;4.20;95.60
21282;DHT22;10800;53.096;18.328;2023-12-22T08:18:54;4.40;95.70
21282;DHT22;10800;53.096;18.328;2023-12-22T08:24:04;4.50;94.70
21282;DHT22;10800;53.096;18.328;2023-12-22T08:29:14;4.60;95.10
21282;DHT22;10800;53.096;18.328;2023-12-22T08:34:24;4.80;94.70
21282;DHT22;10800;53.096;18.328;2023-12-22T08:39:40;5.00;94.60
21282;DHT22;10800;53.096;18.328;2023-12-22T08:44:46;5.10;94.80
21282;DHT22;10800;53.096;18.328;2023-12-22T08:49:57;5.00;96.60
21282;DHT22;10800;53.096;18.328;2023-12-22T08:55:07;4.60;98.20
21282;DHT22;10800;53.096;18.328;2023-12-22T09:00:39;4.10;99.90
21282;DHT22;10800;53.096;18.328;2023-12-22T09:05:53;3.70;99.90
21282;DHT22;10800;53.096;18.328;2023-12-22T09:11:01;3.50;99.90
21282;DHT22;10800;53.096;18.328;2023-12-22T09:16:24;3.40;99.90
21282;DHT22;10800;53.096;18.328;2023-12-22T09:21:48;3.70;99.90
21282;DHT22;10800;53.096;18.328;2023-12-22T09:27:25;4.10;99.90
21282;DHT22;10800;53.096;18.328;2023-12-22T09:32:41;4.50;99.90
21282;DHT22;10800;53.096;18.328;2023-12-22T09:38:11;4.50;99.90
21282;DHT22;10800;53.096;18.328;2023-12-22T09:43:58;4.40;99.90
21282;DHT22;10800;53.096;18.328;2023-12-22T09:49:08;4.40;99.90
21282;DHT22;10800;53.096;18.328;2023-12-22T09:54:16;4.30;99.90
21282;DHT22;10800;53.096;18.328;2023-12-22T09:59:27;4.20;99.90
21282;DHT22;10800;53.096;18.328;2023-12-22T10:04:55;4.10;99.90
21282;DHT22;10800;53.096;18.328;2023-12-22T10:10:11;4.10;99.90
21282;DHT22;10800;53.096;18.328;2023-12-22T10:15:57;4.10;99.90
21282;DHT22;10800;53.096;18.328;2023-12-22T10:21:25;4.00;99.90
21282;DHT22;10800;53.096;18.328;2023-12-22T10:27:01;3.90;99.90
21282;DHT22;10800;53.096;18.328;2023-12-22T10:32:09;3.80;99.90
21282;DHT22;10800;53.096;18.328;2023-12-22T10:37:47;3.80;99.90
21282;DHT22;10800;53.096;18.328;2023-12-22T10:43:29;3.80;99.90
21282;DHT22;10800;53.096;18.328;2023-12-22T10:48:56;3.70;99.90
21282;DHT22;10800;53.096;18.328;2023-12-22T10:54:09;3.50;99.90
21282;DHT22;10800;53.096;18.328;2023-12-22T10:59:46;3.40;99.90
21282;DHT22;10800;53.096;18.328;2023-12-22T11:05:03;3.40;99.90
21282;DHT22;10800;53.096;18.328;2023-12-22T11:10:16;3.40;99.90
21282;DHT22;10800;53.096;18.328;2023-12-22T11:15:22;3.40;99.90
21282;DHT22;10800;53.096;18.328;2023-12-22T11:20:29;3.50;99.90
21282;DHT22;10800;53.096;18.328;2023-12-22T11:25:37;3.60;99.90
21282;DHT22;10800;53.096;18.328;2023-12-22T11:30:46;3.70;99.90
21282;DHT22;10800;53.096;18.328;2023-12-22T11:35:55;3.70;99.90
21282;DHT22;10800;53.096;18.328;2023-12-22T11:41:04;3.70;99.90
21282;DHT22;10800;53.096;18.328;2023-12-22T11:46:20;3.60;99.90
21282;DHT22;10800;53.096;18.328;2023-12-22T11:51:43;3.50;99.90
21282;DHT22;10800;53.096;18.328;2023-12-22T11:57:35;3.50;99.90
21282;DHT22;10800;53.096;18.328;2023-12-22T12:02:48;3.40;99.90
21282;DHT22;10800;53.096;18.328;2023-12-22T12:08:29;3.30;99.90
21282;DHT22;10800;53.096;18.328;2023-12-22T12:14:06;3.00;99.90
21282;DHT22;10800;53.096;18.328;2023-12-22T12:19:18;2.90;99.90
21282;DHT22;10800;53.096;18.328;2023-12-22T12:24:27;2.90;99.90
21282;DHT22;10800;53.096;18.328;2023-12-22T12:29:50;2.80;99.90
21282;DHT22;10800;53.096;18.328;2023-12-22T12:35:20;2.80;99.90
21282;DHT22;10800;53.096;18.328;2023-12-22T12:40:56;2.80;99.90
21282;DHT22;10800;53.096;18.328;2023-12-22T12:46:32;2.70;99.90
21282;DHT22;10800;53.096;18.328;2023-12-22T12:51:48;2.80;99.90
21282;DHT22;10800;53.096;18.328;2023-12-22T12:57:18;2.80;99.90
21282;DHT22;10800;53.096;18.328;2023-12-22T13:02:36;2.80;99.90
21282;DHT22;10800;53.096;18.328;2023-12-22T13:07:47;2.80;99.90
21282;DHT22;10800;53.096;18.328;2023-12-22T13:13:46;2.70;99.90
21282;DHT22;10800;53.096;18.328;2023-12-22T13:19:20;2.70;99.90
21282;DHT22;10800;53.096;18.328;2023-12-22T13:25:01;2.60;99.90
21282;DHT22;10800;53.096;18.328;2023-12-22T13:30:56;2.60;99.90
21282;DHT22;10800;53.096;18.328;2023-12-22T13:36:07;2.60;99.90
21282;DHT22;10800;53.096;18.328;2023-12-22T13:41:15;2.60;99.90
21282;DHT22;10800;53.096;18.328;2023-12-22T13:46:38;2.60;99.90
21282;DHT22;10800;53.096;18.328;2023-12-22T13:52:03;2.60;99.90
21282;DHT22;10800;53.096;18.328;2023-12-22T13:57:36;2.60;99.90
21282;DHT22;10800;53.096;18.328;2023-12-22T14:02:51;2.60;99.90
21282;DHT22;10800;53.096;18.328;2023-12-22T14:08:10;2.60;99.90
21282;DHT22;10800;53.096;18.328;2023-12-22T14:13:50;2.60;99.90
21282;DHT22;10800;53.096;18.328;2023-12-22T14:19:38;2.60;99.90
21282;DHT22;10800;53.096;18.328;2023-12-22T14:25:28;2.60;99.90
21282;DHT22;10800;53.096;18.328;2023-12-22T14:30:39;2.60;99.90
21282;DHT22;10800;53.096;18.328;2023-12-22T14:36:09;2.60;99.90
21282;DHT22;10800;53.096;18.328;2023-12-22T15:01:35;2.40;99.90
21282;DHT22;10800;53.096;18.328;2023-12-22T15:07:16;2.30;99.90
21282;DHT22;10800;53.096;18.328;2023-12-22T15:12:37;2.30;99.90
21282;DHT22;10800;53.096;18.328;2023-12-22T15:18:09;2.40;99.90
21282;DHT22;10800;53.096;18.328;2023-12-22T15:23:34;2.40;99.90
21282;DHT22;10800;53.096;18.328;2023-12-22T15:29:04;2.40;99.90
21282;DHT22;10800;53.096;18.328;2023-12-22T15:34:51;2.40;99.90
21282;DHT22;10800;53.096;18.328;2023-12-22T15:40:37;2.50;99.90
21282;DHT22;10800;53.096;18.328;2023-12-22T15:46:14;2.70;99.90
21282;DHT22;10800;53.096;18.328;2023-12-22T15:51:28;2.70;99.90
21282;DHT22;10800;53.096;18.328;2023-12-22T15:56:42;2.80;99.90
21282;DHT22;10800;53.096;18.328;2023-12-22T16:02:04;2.80;99.90
21282;DHT22;10800;53.096;18.328;2023-12-22T16:07:56;2.80;99.90
21282;DHT22;10800;53.096;18.328;2023-12-22T16:13:44;2.90;99.90
21282;DHT22;10800;53.096;18.328;2023-12-22T16:18:55;2.90;99.90
21282;DHT22;10800;53.096;18.328;2023-12-22T16:24:03;3.00;99.90
21282;DHT22;10800;53.096;18.328;2023-12-22T16:29:33;3.10;99.90
21282;DHT22;10800;53.096;18.328;2023-12-22T16:35:02;3.10;99.90
21282;DHT22;10800;53.096;18.328;2023-12-22T16:40:36;3.00;99.90
21282;DHT22;10800;53.096;18.328;2023-12-22T16:46:07;3.00;99.90
21282;DHT22;10800;53.096;18.328;2023-12-22T16:52:07;3.00;99.90
21282;DHT22;10800;53.096;18.328;2023-12-22T16:57:33;3.10;99.90
21282;DHT22;10800;53.096;18.328;2023-12-22T17:03:00;3.10;99.90
21282;DHT22;10800;53.096;18.328;2023-12-22T17:08:16;3.20;99.90
21282;DHT22;10800;53.096;18.328;2023-12-22T17:13:24;3.10;99.90
21282;DHT22;10800;53.096;18.328;2023-12-22T17:18:30;3.20;99.90
21282;DHT22;10800;53.096;18.328;2023-12-22T17:23:45;3.10;99.90
21282;DHT22;10800;53.096;18.328;2023-12-22T17:29:04;3.20;99.90
21282;DHT22;10800;53.096;18.328;2023-12-22T17:34:35;3.20;99.90
21282;DHT22;10800;53.096;18.328;2023-12-22T17:40:03;3.30;99.90
21282;DHT22;10800;53.096;18.328;2023-12-22T17:45:28;3.10;99.90
21282;DHT22;10800;53.096;18.328;2023-12-22T17:50:40;3.10;99.90
21282;DHT22;10800;53.096;18.328;2023-12-22T17:55:46;3.10;99.90
21282;DHT22;10800;53.096;18.328;2023-12-22T18:00:53;3.00;99.90
21282;DHT22;10800;53.096;18.328;2023-12-22T18:05:59;2.90;99.90
21282;DHT22;10800;53.096;18.328;2023-12-22T18:11:12;2.80;99.90
21282;DHT22;10800;53.096;18.328;2023-12-22T18:16:18;2.90;99.90
21282;DHT22;10800;53.096;18.328;2023-12-22T18:21:24;3.00;99.90
21282;DHT22;10800;53.096;18.328;2023-12-22T18:26:37;3.00;99.90
21282;DHT22;10800;53.096;18.328;2023-12-22T18:31:43;3.00;99.90
21282;DHT22;10800;53.096;18.328;2023-12-22T18:36:50;3.00;99.90
21282;DHT22;10800;53.096;18.328;2023-12-22T18:41:56;3.00;99.90
21282;DHT22;10800;53.096;18.328;2023-12-22T18:47:02;2.90;99.90
21282;DHT22;10800;53.096;18.328;2023-12-22T18:52:13;2.80;99.90
21282;DHT22;10800;53.096;18.328;2023-12-22T18:57:19;2.60;99.90
21282;DHT22;10800;53.096;18.328;2023-12-22T19:02:27;2.40;99.90
21282;DHT22;10800;53.096;18.328;2023-12-22T19:07:34;2.40;99.90
21282;DHT22;10800;53.096;18.328;2023-12-22T19:12:40;2.30;99.90
21282;DHT22;10800;53.096;18.328;2023-12-22T19:17:46;2.20;99.90
21282;DHT22;10800;53.096;18.328;2023-12-22T19:22:55;2.20;99.90
21282;DHT22;10800;53.096;18.328;2023-12-22T19:28:00;2.10;99.90
21282;DHT22;10800;53.096;18.328;2023-12-22T19:33:07;2.10;99.90
21282;DHT22;10800;53.096;18.328;2023-12-22T19:38:15;2.00;99.90
21282;DHT22;10800;53.096;18.328;2023-12-22T19:43:24;2.00;99.90
21282;DHT22;10800;53.096;18.328;2023-12-22T19:48:29;2.10;99.90
21282;DHT22;10800;53.096;18.328;2023-12-22T19:53:35;2.10;99.90
21282;DHT22;10800;53.096;18.328;2023-12-22T19:58:41;2.00;99.90
21282;DHT22;10800;53.096;18.328;2023-12-22T20:03:47;2.00;99.90
21282;DHT22;10800;53.096;18.328;2023-12-22T20:08:53;2.00;99.90
21282;DHT22;10800;53.096;18.328;2023-12-22T20:13:58;2.10;99.90
21282;DHT22;10800;53.096;18.328;2023-12-22T20:19:04;2.10;99.90
21282;DHT22;10800;53.096;18.328;2023-12-22T20:24:10;2.20;99.90
21282;DHT22;10800;53.096;18.328;2023-12-22T20:29:15;2.30;99.90
21282;DHT22;10800;53.096;18.328;2023-12-22T20:34:23;2.40;99.90
21282;DHT22;10800;53.096;18.328;2023-12-22T20:39:29;2.40;99.90
21282;DHT22;10800;53.096;18.328;2023-12-22T20:44:35;2.50;99.90
21282;DHT22;10800;53.096;18.328;2023-12-22T20:50:04;2.60;99.90
21282;DHT22;10800;53.096;18.328;2023-12-22T20:55:11;2.70;99.90
21282;DHT22;10800;53.096;18.328;2023-12-22T21:00:17;2.70;99.90
21282;DHT22;10800;53.096;18.328;2023-12-22T21:05:23;2.70;99.90
21282;DHT22;10800;53.096;18.328;2023-12-22T21:10:29;2.70;99.90
21282;DHT22;10800;53.096;18.328;2023-12-22T21:15:38;2.70;99.90
21282;DHT22;10800;53.096;18.328;2023-12-22T21:20:44;2.60;99.90
21282;DHT22;10800;53.096;18.328;2023-12-22T21:25:49;2.60;99.90
21282;DHT22;10800;53.096;18.328;2023-12-22T21:30:55;2.60;99.90
21282;DHT22;10800;53.096;18.328;2023-12-22T21:36:01;2.70;99.90
21282;DHT22;10800;53.096;18.328;2023-12-22T21:41:07;2.70;99.90
21282;DHT22;10800;53.096;18.328;2023-12-22T21:46:14;2.80;99.90
21282;DHT22;10800;53.096;18.328;2023-12-22T21:51:22;2.70;99.90
21282;DHT22;10800;53.096;18.328;2023-12-22T21:56:29;2.70;99.90
21282;DHT22;10800;53.096;18.328;2023-12-22T22:01:43;2.70;99.90
21282;DHT22;10800;53.096;18.328;2023-12-22T22:06:50;2.60;99.90
21282;DHT22;10800;53.096;18.328;2023-12-22T22:11:56;2.50;99.90
21282;DHT22;10800;53.096;18.328;2023-12-22T22:17:03;2.50;99.90
21282;DHT22;10800;53.096;18.328;2023-12-22T22:22:11;2.40;99.90
21282;DHT22;10800;53.096;18.328;2023-12-22T22:27:16;2.40;99.90
21282;DHT22;10800;53.096;18.328;2023-12-22T22:32:22;2.40;99.90
21282;DHT22;10800;53.096;18.328;2023-12-22T22:37:31;2.30;99.90
21282;DHT22;10800;53.096;18.328;2023-12-22T22:42:38;2.20;99.90
21282;DHT22;10800;53.096;18.328;2023-12-22T22:47:44;2.10;99.90
21282;DHT22;10800;53.096;18.328;2023-12-22T22:52:50;2.10;99.90
21282;DHT22;10800;53.096;18.328;2023-12-22T22:57:55;2.00;99.90
21282;DHT22;10800;53.096;18.328;2023-12-22T23:03:03;2.00;99.90
21282;DHT22;10800;53.096;18.328;2023-12-22T23:08:09;2.00;99.90
21282;DHT22;10800;53.096;18.328;2023-12-22T23:13:16;2.00;99.90
21282;DHT22;10800;53.096;18.328;2023-12-22T23:18:21;1.90;99.90
21282;DHT22;10800;53.096;18.328;2023-12-22T23:23:27;2.00;99.90
21282;DHT22;10800;53.096;18.328;2023-12-22T23:28:33;2.00;99.90
21282;DHT22;10800;53.096;18.328;2023-12-22T23:33:39;2.10;99.90
21282;DHT22;10800;53.096;18.328;2023-12-22T23:38:48;2.10;99.90
21282;DHT22;10800;53.096;18.328;2023-12-22T23:43:53;2.00;99.90
21282;DHT22;10800;53.096;18.328;2023-12-22T23:48:59;2.10;99.90
21282;DHT22;10800;53.096;18.328;2023-12-22T23:54:06;2.10;99.70
21282;DHT22;10800;53.096;18.328;2023-12-22T23:59:12;2.10;99.90
